• Join FlightAware (Why Join?)
  • Login
  • US Flag 
12:19PM EST


 

Airport Tracker/Info


-or-


 

Live Flight TrackerFlight Track Log ✈ PAG115 ✈ 02-Aug-2013 ✈ CYWG - CYCR

Flight Track Log - Related Links

Times and Time Zones

All times are in EDT time to prevent confusion due to time zone crossing. See the PAG115 flight status page for this flight to view local times or setup timezone preferences in your user account.

Time Position Orientation Groundspeed Altitude Reporting Facility
EDT Latitude Longitude Course Direction KTS MPH feet Rate Location/Type
03:18PM 49.8833 -97.2333 316° Northwest 100 115 800  Level Winnipeg Center
03:19PM 49.9167 -97.2833 316° Northwest 140 161 2,600 1,860 Climbing Winnipeg Center
03:20PM 49.9500 -97.3000 342° North 150 173 4,600 1,920 Climbing Winnipeg Center
03:21PM 50.0000 -97.2833 12° North 160 184 6,500 1,740 Climbing Winnipeg Center
03:22PM 50.0500 -97.2833 360° North 170 196 8,100 1,620 Climbing Winnipeg Center
03:23PM 50.1000 -97.2833 360° North 170 196 9,800 1,440 Climbing Winnipeg Center
03:24PM 50.1500 -97.2833 360° North 190 219 11,000 1,260 Climbing Winnipeg Center
03:25PM 50.2000 -97.2833 360° North 190 219 12,400 1,200 Climbing Winnipeg Center
03:26PM 50.2500 -97.3000 348° North 190 219 13,500 960 Climbing Winnipeg Center
03:27PM 50.3000 -97.3000 360° North 200 230 14,400 960 Climbing Winnipeg Center
03:28PM 50.3667 -97.3000 360° North 200 230 15,500 960 Climbing Winnipeg Center
03:29PM 50.4167 -97.3000 360° North 190 219 16,400 900 Climbing Winnipeg Center
03:30PM 50.4667 -97.3000 360° North 190 219 17,300 780 Climbing Winnipeg Center
03:31PM 50.5167 -97.3000 360° North 190 219 18,000 660 Climbing Winnipeg Center
03:32PM 50.5833 -97.3000 360° North 190 219 18,700 600 Climbing Winnipeg Center
03:33PM 50.6333 -97.3333 337° Northwest 190 219 19,300 600 Climbing Winnipeg Center
03:34PM 50.6833 -97.3333 360° North 190 219 19,900 360 Climbing Winnipeg Center
03:35PM 50.7333 -97.3333 360° North 200 230 20,100  Climbing Winnipeg Center
03:36PM 50.8000 -97.3333 360° North 220 253 20,000  Descending Winnipeg Center
03:37PM 50.8667 -97.3667 342° North 230 265 20,100  Climbing Winnipeg Center
03:38PM 50.9333 -97.3667 360° North 230 265 20,100 -60 Level Winnipeg Center
03:39PM 51.0000 -97.3667 360° North 230 265 20,000 -60 Descending Winnipeg Center
03:40PM 51.0500 -97.3667 360° North 230 265 20,000  Level Winnipeg Center
03:41PM 51.1167 -97.3667 360° North 230 265 20,000  Level Winnipeg Center
03:42PM 51.1833 -97.3667 360° North 230 265 20,000  Level Winnipeg Center
03:43PM 51.2500 -97.4000 343° North 230 265 20,000  Level Winnipeg Center
03:44PM 51.3167 -97.4000 360° North 230 265 20,100  Climbing Winnipeg Center
03:45PM 51.3667 -97.4000 360° North 230 265 20,100 -60 Level Winnipeg Center
03:46PM 51.4333 -97.4000 360° North 230 265 20,000 -60 Descending Winnipeg Center
03:47PM 51.5000 -97.4000 360° North 230 265 20,000  Level Winnipeg Center
03:48PM 51.5667 -97.4167 351° North 220 253 20,100  Climbing Winnipeg Center
03:49PM 51.6167 -97.4167 360° North 220 253 20,000 -60 Descending Winnipeg Center
03:50PM 51.6833 -97.4167 360° North 230 265 20,000  Level Winnipeg Center
03:51PM 51.7500 -97.4167 360° North 230 265 20,000  Level Winnipeg Center
03:52PM 51.8167 -97.4500 343° North 220 253 20,000 -60 Level Winnipeg Center
03:53PM 51.8667 -97.4500 360° North 220 253 19,900  Descending Winnipeg Center
03:54PM 51.9333 -97.4500 360° North 220 253 20,000  Climbing Winnipeg Center
03:55PM 52.0000 -97.4500 360° North 220 253 20,000  Level Winnipeg Center
03:56PM 52.0500 -97.4500 360° North 230 265 20,000  Level Winnipeg Center
03:57PM 52.1167 -97.4833 343° North 220 253 20,000  Level Winnipeg Center
03:58PM 52.1833 -97.4833 360° North 230 265 20,100  Climbing Winnipeg Center
03:59PM 52.2333 -97.4833 360° North 220 253 20,100  Level Winnipeg Center
04:00PM 52.3000 -97.5167 343° North 220 253 20,100  Level Winnipeg Center
04:01PM 52.3667 -97.5167 360° North 220 253 20,100  Level Winnipeg Center
04:02PM 52.4167 -97.5167 360° North 220 253 20,100  Level Winnipeg Center
04:03PM 52.4833 -97.5167 360° North 220 253 20,100  Level Winnipeg Center
04:04PM 52.5500 -97.5167 360° North 220 253 20,100  Level Winnipeg Center
04:05PM 52.6000 -97.5500 338° Northwest 220 253 20,100  Level Winnipeg Center
04:06PM 52.6667 -97.5500 360° North 220 253 20,100  Level Winnipeg Center
04:07PM 52.7333 -97.5500 360° North 220 253 20,100  Level Winnipeg Center
04:08PM 52.8000 -97.5500 360° North 220 253 20,100  Level Winnipeg Center
04:09PM 52.8500 -97.5500 360° North 220 253 20,100  Level Winnipeg Center
04:10PM 52.9167 -97.5500 360° North 220 253 20,100  Level Winnipeg Center
04:11PM 52.9667 -97.5833 338° Northwest 220 253 20,100  Level Winnipeg Center
04:12PM 53.0333 -97.5833 360° North 220 253 20,100 -60 Level Winnipeg Center
04:13PM 53.1000 -97.5833 360° North 220 253 20,000 -60 Descending Winnipeg Center
04:14PM 53.1500 -97.5833 360° North 220 253 20,000 -420 Level Winnipeg Center
04:15PM 53.2167 -97.5833 360° North 230 265 19,200 -780 Descending Winnipeg Center
04:16PM 53.2833 -97.6000 351° North 250 288 18,500 -840 Descending Winnipeg Center
04:17PM 53.3833 -97.6167 354° North 260 299 17,600 -840 Descending Winnipeg Center
04:18PM 53.4500 -97.6167 360° North 270 311 16,900 -660 Descending Winnipeg Center
04:19PM 53.5167 -97.6333 352° North 270 311 16,300 -600 Descending Winnipeg Center
04:20PM 53.6000 -97.6333 360° North 270 311 15,700 -600 Descending Winnipeg Center
04:21PM 53.6667 -97.6333 360° North 260 299 15,200 -600 Descending Winnipeg Center
04:22PM 53.7500 -97.6500 353° North 270 311 14,500 -660 Descending Winnipeg Center
04:23PM 53.8167 -97.6667 352° North 270 311 13,900 -600 Descending Winnipeg Center
04:24PM 53.9000 -97.6500 North 260 299 13,400 -600 Descending Winnipeg Center
04:25PM 53.9667 -97.6667 352° North 260 299 12,700 -660 Descending Winnipeg Center
04:26PM 54.0333 -97.6833 352° North 260 299 12,100 -540 Descending Winnipeg Center
04:27PM 54.1167 -97.6833 360° North 260 299 11,700 -420 Descending Winnipeg Center
04:28PM 54.1833 -97.6833 360° North 260 299 11,300 -480 Descending Winnipeg Center
04:29PM 54.2500 -97.7000 352° North 260 299 10,800 -540 Descending Winnipeg Center